sensor_id;sensor_type;location;lat;lon;timestamp;P1;durP1;ratioP1;P2;durP2;ratioP2
27576;SDS011;15011;53.380;10.034;2024-03-02T00:02:57;17.23;;;10.40;;
27576;SDS011;15011;53.380;10.034;2024-03-02T00:07:58;16.33;;;10.03;;
27576;SDS011;15011;53.380;10.034;2024-03-02T00:13:00;19.67;;;10.88;;
27576;SDS011;15011;53.380;10.034;2024-03-02T00:18:00;18.87;;;10.77;;
27576;SDS011;15011;53.380;10.034;2024-03-02T00:23:05;22.40;;;12.48;;
27576;SDS011;15011;53.380;10.034;2024-03-02T00:33:26;20.48;;;10.52;;
27576;SDS011;15011;53.380;10.034;2024-03-02T00:38:28;21.08;;;10.80;;
27576;SDS011;15011;53.380;10.034;2024-03-02T00:43:42;22.23;;;11.85;;
27576;SDS011;15011;53.380;10.034;2024-03-02T00:48:50;22.50;;;11.85;;
27576;SDS011;15011;53.380;10.034;2024-03-02T00:53:53;23.08;;;11.73;;
27576;SDS011;15011;53.380;10.034;2024-03-02T00:58:56;25.13;;;13.20;;
27576;SDS011;15011;53.380;10.034;2024-03-02T01:03:57;27.77;;;13.65;;
27576;SDS011;15011;53.380;10.034;2024-03-02T01:08:58;23.15;;;12.10;;
27576;SDS011;15011;53.380;10.034;2024-03-02T01:13:59;29.20;;;13.90;;
27576;SDS011;15011;53.380;10.034;2024-03-02T01:18:59;25.27;;;12.77;;
27576;SDS011;15011;53.380;10.034;2024-03-02T01:24:00;26.73;;;12.87;;
27576;SDS011;15011;53.380;10.034;2024-03-02T01:29:00;29.70;;;14.35;;
27576;SDS011;15011;53.380;10.034;2024-03-02T01:34:01;29.30;;;14.50;;
27576;SDS011;15011;53.380;10.034;2024-03-02T01:39:01;24.83;;;12.93;;
27576;SDS011;15011;53.380;10.034;2024-03-02T01:44:02;45.17;;;20.10;;
27576;SDS011;15011;53.380;10.034;2024-03-02T01:49:02;30.83;;;14.60;;
27576;SDS011;15011;53.380;10.034;2024-03-02T01:54:03;34.70;;;15.27;;
27576;SDS011;15011;53.380;10.034;2024-03-02T01:59:03;29.87;;;14.10;;
27576;SDS011;15011;53.380;10.034;2024-03-02T02:04:04;32.73;;;14.93;;
27576;SDS011;15011;53.380;10.034;2024-03-02T02:09:06;27.65;;;13.82;;
27576;SDS011;15011;53.380;10.034;2024-03-02T02:14:08;26.60;;;13.60;;
27576;SDS011;15011;53.380;10.034;2024-03-02T02:19:08;32.97;;;14.70;;
27576;SDS011;15011;53.380;10.034;2024-03-02T02:24:09;30.48;;;14.43;;
27576;SDS011;15011;53.380;10.034;2024-03-02T02:29:10;28.83;;;15.43;;
27576;SDS011;15011;53.380;10.034;2024-03-02T02:34:11;31.53;;;13.87;;
27576;SDS011;15011;53.380;10.034;2024-03-02T02:39:12;32.60;;;15.13;;
27576;SDS011;15011;53.380;10.034;2024-03-02T02:44:14;30.10;;;14.23;;
27576;SDS011;15011;53.380;10.034;2024-03-02T02:49:15;29.77;;;14.67;;
27576;SDS011;15011;53.380;10.034;2024-03-02T02:54:15;32.27;;;15.70;;
27576;SDS011;15011;53.380;10.034;2024-03-02T02:59:16;29.13;;;14.63;;
27576;SDS011;15011;53.380;10.034;2024-03-02T03:04:16;31.20;;;15.27;;
27576;SDS011;15011;53.380;10.034;2024-03-02T03:09:17;33.13;;;15.50;;
27576;SDS011;15011;53.380;10.034;2024-03-02T03:14:17;35.37;;;16.13;;
27576;SDS011;15011;53.380;10.034;2024-03-02T03:19:18;37.90;;;17.40;;
27576;SDS011;15011;53.380;10.034;2024-03-02T03:24:18;31.23;;;15.10;;
27576;SDS011;15011;53.380;10.034;2024-03-02T03:29:18;30.67;;;15.40;;
27576;SDS011;15011;53.380;10.034;2024-03-02T03:34:19;33.93;;;14.60;;
27576;SDS011;15011;53.380;10.034;2024-03-02T03:39:19;36.27;;;15.53;;
27576;SDS011;15011;53.380;10.034;2024-03-02T03:44:20;32.45;;;15.95;;
27576;SDS011;15011;53.380;10.034;2024-03-02T03:49:20;31.57;;;15.03;;
27576;SDS011;15011;53.380;10.034;2024-03-02T03:54:21;29.90;;;14.93;;
27576;SDS011;15011;53.380;10.034;2024-03-02T03:59:21;28.70;;;14.63;;
27576;SDS011;15011;53.380;10.034;2024-03-02T04:04:22;28.57;;;14.33;;
27576;SDS011;15011;53.380;10.034;2024-03-02T04:09:22;29.80;;;15.27;;
27576;SDS011;15011;53.380;10.034;2024-03-02T04:14:23;27.60;;;14.37;;
27576;SDS011;15011;53.380;10.034;2024-03-02T04:19:23;27.17;;;13.43;;
27576;SDS011;15011;53.380;10.034;2024-03-02T04:24:24;29.60;;;13.73;;
27576;SDS011;15011;53.380;10.034;2024-03-02T04:29:24;28.10;;;13.73;;
27576;SDS011;15011;53.380;10.034;2024-03-02T04:34:25;26.20;;;13.60;;
27576;SDS011;15011;53.380;10.034;2024-03-02T04:39:25;22.90;;;13.80;;
27576;SDS011;15011;53.380;10.034;2024-03-02T04:44:26;25.83;;;13.82;;
27576;SDS011;15011;53.380;10.034;2024-03-02T04:49:27;25.63;;;13.73;;
27576;SDS011;15011;53.380;10.034;2024-03-02T04:54:27;28.95;;;14.25;;
27576;SDS011;15011;53.380;10.034;2024-03-02T04:59:27;52.97;;;22.90;;
27576;SDS011;15011;53.380;10.034;2024-03-02T05:04:28;30.83;;;15.90;;
27576;SDS011;15011;53.380;10.034;2024-03-02T05:09:28;27.50;;;13.53;;
27576;SDS011;15011;53.380;10.034;2024-03-02T05:14:29;28.07;;;13.53;;
27576;SDS011;15011;53.380;10.034;2024-03-02T05:19:29;25.13;;;13.77;;
27576;SDS011;15011;53.380;10.034;2024-03-02T05:24:30;24.90;;;13.13;;
27576;SDS011;15011;53.380;10.034;2024-03-02T05:29:30;23.20;;;13.10;;
27576;SDS011;15011;53.380;10.034;2024-03-02T05:34:30;24.67;;;12.93;;
27576;SDS011;15011;53.380;10.034;2024-03-02T05:39:33;25.40;;;12.93;;
27576;SDS011;15011;53.380;10.034;2024-03-02T05:44:33;23.05;;;12.82;;
27576;SDS011;15011;53.380;10.034;2024-03-02T05:49:34;30.23;;;14.10;;
27576;SDS011;15011;53.380;10.034;2024-03-02T05:54:35;28.20;;;13.38;;
27576;SDS011;15011;53.380;10.034;2024-03-02T05:59:35;26.45;;;13.15;;
27576;SDS011;15011;53.380;10.034;2024-03-02T06:04:35;21.90;;;13.27;;
27576;SDS011;15011;53.380;10.034;2024-03-02T06:09:36;24.23;;;13.37;;
27576;SDS011;15011;53.380;10.034;2024-03-02T06:14:37;27.75;;;14.07;;
27576;SDS011;15011;53.380;10.034;2024-03-02T06:19:38;24.52;;;13.05;;
27576;SDS011;15011;53.380;10.034;2024-03-02T06:24:39;23.98;;;12.73;;
27576;SDS011;15011;53.380;10.034;2024-03-02T06:29:39;20.23;;;11.87;;
27576;SDS011;15011;53.380;10.034;2024-03-02T06:34:39;25.13;;;12.35;;
27576;SDS011;15011;53.380;10.034;2024-03-02T06:39:40;25.93;;;12.10;;
27576;SDS011;15011;53.380;10.034;2024-03-02T06:44:40;25.30;;;12.97;;
27576;SDS011;15011;53.380;10.034;2024-03-02T06:49:41;26.20;;;12.70;;
27576;SDS011;15011;53.380;10.034;2024-03-02T06:54:41;23.97;;;12.20;;
27576;SDS011;15011;53.380;10.034;2024-03-02T06:59:43;25.97;;;11.67;;
27576;SDS011;15011;53.380;10.034;2024-03-02T07:04:43;26.52;;;11.93;;
27576;SDS011;15011;53.380;10.034;2024-03-02T07:14:45;24.60;;;13.43;;
27576;SDS011;15011;53.380;10.034;2024-03-02T07:20:04;23.58;;;11.43;;
27576;SDS011;15011;53.380;10.034;2024-03-02T07:25:06;23.00;;;12.25;;
27576;SDS011;15011;53.380;10.034;2024-03-02T07:30:07;25.25;;;12.13;;
27576;SDS011;15011;53.380;10.034;2024-03-02T07:35:08;24.73;;;12.60;;
27576;SDS011;15011;53.380;10.034;2024-03-02T07:40:09;27.63;;;13.25;;
27576;SDS011;15011;53.380;10.034;2024-03-02T07:45:13;23.92;;;12.20;;
27576;SDS011;15011;53.380;10.034;2024-03-02T07:50:13;24.30;;;12.48;;
27576;SDS011;15011;53.380;10.034;2024-03-02T07:55:14;26.25;;;12.02;;
27576;SDS011;15011;53.380;10.034;2024-03-02T08:00:15;23.00;;;11.03;;
27576;SDS011;15011;53.380;10.034;2024-03-02T08:05:16;23.77;;;12.45;;
27576;SDS011;15011;53.380;10.034;2024-03-02T08:10:19;22.52;;;11.55;;
27576;SDS011;15011;53.380;10.034;2024-03-02T08:15:19;21.98;;;12.10;;
27576;SDS011;15011;53.380;10.034;2024-03-02T08:20:20;20.30;;;11.90;;
27576;SDS011;15011;53.380;10.034;2024-03-02T08:25:20;18.37;;;10.83;;
27576;SDS011;15011;53.380;10.034;2024-03-02T08:30:21;23.25;;;11.55;;
27576;SDS011;15011;53.380;10.034;2024-03-02T08:35:22;22.08;;;12.15;;
27576;SDS011;15011;53.380;10.034;2024-03-02T08:40:23;22.13;;;11.57;;
27576;SDS011;15011;53.380;10.034;2024-03-02T08:45:24;22.85;;;11.32;;
27576;SDS011;15011;53.380;10.034;2024-03-02T08:50:24;23.57;;;11.63;;
27576;SDS011;15011;53.380;10.034;2024-03-02T08:55:25;19.02;;;11.07;;
27576;SDS011;15011;53.380;10.034;2024-03-02T09:00:26;18.43;;;10.97;;
27576;SDS011;15011;53.380;10.034;2024-03-02T09:05:26;16.08;;;9.73;;
27576;SDS011;15011;53.380;10.034;2024-03-02T09:10:26;16.40;;;9.17;;
27576;SDS011;15011;53.380;10.034;2024-03-02T09:15:27;16.87;;;9.53;;
27576;SDS011;15011;53.380;10.034;2024-03-02T09:20:28;17.95;;;9.80;;
27576;SDS011;15011;53.380;10.034;2024-03-02T09:25:28;15.07;;;9.87;;
27576;SDS011;15011;53.380;10.034;2024-03-02T09:30:29;16.17;;;10.17;;
27576;SDS011;15011;53.380;10.034;2024-03-02T09:35:31;13.93;;;8.32;;
27576;SDS011;15011;53.380;10.034;2024-03-02T09:40:32;9.65;;;6.22;;
27576;SDS011;15011;53.380;10.034;2024-03-02T09:45:33;14.18;;;7.25;;
27576;SDS011;15011;53.380;10.034;2024-03-02T09:50:33;12.30;;;7.18;;
27576;SDS011;15011;53.380;10.034;2024-03-02T09:55:35;9.27;;;5.75;;
27576;SDS011;15011;53.380;10.034;2024-03-02T10:10:37;10.30;;;6.05;;
27576;SDS011;15011;53.380;10.034;2024-03-02T10:15:42;9.15;;;5.50;;
27576;SDS011;15011;53.380;10.034;2024-03-02T10:20:42;11.53;;;6.13;;
27576;SDS011;15011;53.380;10.034;2024-03-02T10:25:43;10.67;;;6.63;;
27576;SDS011;15011;53.380;10.034;2024-03-02T10:30:46;8.00;;;5.32;;
27576;SDS011;15011;53.380;10.034;2024-03-02T10:35:48;9.82;;;5.35;;
27576;SDS011;15011;53.380;10.034;2024-03-02T10:40:50;9.38;;;6.15;;
27576;SDS011;15011;53.380;10.034;2024-03-02T10:45:50;10.57;;;6.05;;
27576;SDS011;15011;53.380;10.034;2024-03-02T10:50:51;7.32;;;5.75;;
27576;SDS011;15011;53.380;10.034;2024-03-02T10:55:55;9.15;;;5.57;;
27576;SDS011;15011;53.380;10.034;2024-03-02T11:01:03;8.43;;;5.65;;
27576;SDS011;15011;53.380;10.034;2024-03-02T11:06:04;10.57;;;5.57;;
27576;SDS011;15011;53.380;10.034;2024-03-02T11:11:09;9.20;;;6.65;;
27576;SDS011;15011;53.380;10.034;2024-03-02T11:16:27;9.65;;;5.82;;
27576;SDS011;15011;53.380;10.034;2024-03-02T11:21:37;10.15;;;5.30;;
27576;SDS011;15011;53.380;10.034;2024-03-02T11:31:58;8.00;;;4.88;;
27576;SDS011;15011;53.380;10.034;2024-03-02T11:37:01;8.90;;;4.97;;
27576;SDS011;15011;53.380;10.034;2024-03-02T11:42:03;7.38;;;5.00;;
27576;SDS011;15011;53.380;10.034;2024-03-02T11:47:07;9.52;;;5.15;;
27576;SDS011;15011;53.380;10.034;2024-03-02T11:52:09;6.72;;;4.40;;
27576;SDS011;15011;53.380;10.034;2024-03-02T11:57:11;11.95;;;5.38;;
27576;SDS011;15011;53.380;10.034;2024-03-02T12:02:19;7.78;;;4.72;;
27576;SDS011;15011;53.380;10.034;2024-03-02T12:07:23;8.98;;;4.75;;
27576;SDS011;15011;53.380;10.034;2024-03-02T12:12:24;7.30;;;4.60;;
27576;SDS011;15011;53.380;10.034;2024-03-02T12:17:24;8.50;;;4.80;;
27576;SDS011;15011;53.380;10.034;2024-03-02T12:22:25;7.33;;;4.60;;
27576;SDS011;15011;53.380;10.034;2024-03-02T12:27:25;6.83;;;4.43;;
27576;SDS011;15011;53.380;10.034;2024-03-02T12:32:25;7.83;;;5.03;;
27576;SDS011;15011;53.380;10.034;2024-03-02T12:37:27;10.18;;;4.95;;
27576;SDS011;15011;53.380;10.034;2024-03-02T12:42:28;7.32;;;4.75;;
27576;SDS011;15011;53.380;10.034;2024-03-02T12:47:29;6.90;;;4.28;;
27576;SDS011;15011;53.380;10.034;2024-03-02T12:52:29;6.70;;;4.30;;
27576;SDS011;15011;53.380;10.034;2024-03-02T13:02:31;6.18;;;4.20;;
27576;SDS011;15011;53.380;10.034;2024-03-02T13:07:32;6.78;;;4.60;;
27576;SDS011;15011;53.380;10.034;2024-03-02T13:12:35;7.00;;;4.15;;
27576;SDS011;15011;53.380;10.034;2024-03-02T13:17:36;6.30;;;4.05;;
27576;SDS011;15011;53.380;10.034;2024-03-02T13:22:36;5.93;;;4.05;;
27576;SDS011;15011;53.380;10.034;2024-03-02T13:27:37;8.38;;;4.22;;
27576;SDS011;15011;53.380;10.034;2024-03-02T13:32:37;6.93;;;4.30;;
27576;SDS011;15011;53.380;10.034;2024-03-02T13:37:38;5.13;;;3.93;;
27576;SDS011;15011;53.380;10.034;2024-03-02T13:42:39;7.67;;;3.87;;
27576;SDS011;15011;53.380;10.034;2024-03-02T13:47:40;8.25;;;3.72;;
27576;SDS011;15011;53.380;10.034;2024-03-02T13:57:40;5.63;;;3.93;;
27576;SDS011;15011;53.380;10.034;2024-03-02T14:02:41;6.00;;;4.10;;
27576;SDS011;15011;53.380;10.034;2024-03-02T14:07:41;7.23;;;4.40;;
27576;SDS011;15011;53.380;10.034;2024-03-02T14:12:42;7.17;;;4.53;;
27576;SDS011;15011;53.380;10.034;2024-03-02T14:17:42;6.83;;;4.43;;
27576;SDS011;15011;53.380;10.034;2024-03-02T14:22:42;7.95;;;4.97;;
27576;SDS011;15011;53.380;10.034;2024-03-02T14:27:43;7.22;;;4.43;;
27576;SDS011;15011;53.380;10.034;2024-03-02T14:32:44;7.97;;;4.63;;
27576;SDS011;15011;53.380;10.034;2024-03-02T14:37:44;8.20;;;4.27;;
27576;SDS011;15011;53.380;10.034;2024-03-02T14:42:44;5.87;;;3.93;;
27576;SDS011;15011;53.380;10.034;2024-03-02T14:47:47;6.82;;;4.18;;
27576;SDS011;15011;53.380;10.034;2024-03-02T14:52:48;7.10;;;4.28;;
27576;SDS011;15011;53.380;10.034;2024-03-02T14:57:48;7.32;;;4.20;;
27576;SDS011;15011;53.380;10.034;2024-03-02T15:02:49;6.55;;;4.03;;
27576;SDS011;15011;53.380;10.034;2024-03-02T15:07:50;6.63;;;4.40;;
27576;SDS011;15011;53.380;10.034;2024-03-02T15:12:51;7.22;;;4.50;;
27576;SDS011;15011;53.380;10.034;2024-03-02T15:22:52;6.70;;;4.20;;
27576;SDS011;15011;53.380;10.034;2024-03-02T15:27:52;6.37;;;3.93;;
27576;SDS011;15011;53.380;10.034;2024-03-02T15:32:53;6.47;;;4.00;;
27576;SDS011;15011;53.380;10.034;2024-03-02T15:37:53;6.50;;;4.33;;
27576;SDS011;15011;53.380;10.034;2024-03-02T15:42:54;7.77;;;3.90;;
27576;SDS011;15011;53.380;10.034;2024-03-02T15:47:54;8.87;;;4.23;;
27576;SDS011;15011;53.380;10.034;2024-03-02T15:52:55;9.03;;;5.00;;
27576;SDS011;15011;53.380;10.034;2024-03-02T15:58:02;7.35;;;4.35;;
27576;SDS011;15011;53.380;10.034;2024-03-02T16:03:05;7.88;;;4.30;;
27576;SDS011;15011;53.380;10.034;2024-03-02T16:08:06;5.97;;;4.27;;
27576;SDS011;15011;53.380;10.034;2024-03-02T16:13:06;7.25;;;4.15;;
27576;SDS011;15011;53.380;10.034;2024-03-02T16:18:07;6.75;;;4.28;;
27576;SDS011;15011;53.380;10.034;2024-03-02T16:23:07;6.93;;;5.07;;
27576;SDS011;15011;53.380;10.034;2024-03-02T16:28:08;8.40;;;4.80;;
27576;SDS011;15011;53.380;10.034;2024-03-02T16:33:08;7.93;;;4.75;;
27576;SDS011;15011;53.380;10.034;2024-03-02T16:38:09;8.77;;;5.35;;
27576;SDS011;15011;53.380;10.034;2024-03-02T16:43:10;8.82;;;4.72;;
27576;SDS011;15011;53.380;10.034;2024-03-02T16:48:11;7.75;;;4.63;;
27576;SDS011;15011;53.380;10.034;2024-03-02T16:53:11;7.40;;;4.23;;
27576;SDS011;15011;53.380;10.034;2024-03-02T16:58:12;7.88;;;4.63;;
27576;SDS011;15011;53.380;10.034;2024-03-02T17:03:14;6.40;;;4.40;;
27576;SDS011;15011;53.380;10.034;2024-03-02T17:08:15;8.03;;;5.60;;
27576;SDS011;15011;53.380;10.034;2024-03-02T17:13:15;7.22;;;4.28;;
27576;SDS011;15011;53.380;10.034;2024-03-02T17:18:15;10.33;;;5.17;;
27576;SDS011;15011;53.380;10.034;2024-03-02T17:23:16;8.93;;;4.17;;
27576;SDS011;15011;53.380;10.034;2024-03-02T17:28:23;6.73;;;4.87;;
27576;SDS011;15011;53.380;10.034;2024-03-02T17:33:25;12.35;;;7.03;;
27576;SDS011;15011;53.380;10.034;2024-03-02T17:38:26;9.73;;;5.75;;
27576;SDS011;15011;53.380;10.034;2024-03-02T17:43:26;8.13;;;5.77;;
27576;SDS011;15011;53.380;10.034;2024-03-02T17:48:26;10.17;;;6.87;;
27576;SDS011;15011;53.380;10.034;2024-03-02T17:53:27;11.20;;;7.70;;
27576;SDS011;15011;53.380;10.034;2024-03-02T17:58:27;14.17;;;9.17;;
27576;SDS011;15011;53.380;10.034;2024-03-02T18:03:28;13.00;;;7.30;;
27576;SDS011;15011;53.380;10.034;2024-03-02T18:08:28;11.80;;;6.63;;
27576;SDS011;15011;53.380;10.034;2024-03-02T18:13:29;9.10;;;6.97;;
27576;SDS011;15011;53.380;10.034;2024-03-02T18:18:29;11.93;;;7.43;;
27576;SDS011;15011;53.380;10.034;2024-03-02T18:23:30;10.03;;;6.67;;
27576;SDS011;15011;53.380;10.034;2024-03-02T18:28:30;8.85;;;6.60;;
27576;SDS011;15011;53.380;10.034;2024-03-02T18:33:31;10.63;;;7.30;;
27576;SDS011;15011;53.380;10.034;2024-03-02T18:38:32;10.23;;;5.70;;
27576;SDS011;15011;53.380;10.034;2024-03-02T18:43:33;8.90;;;5.95;;
27576;SDS011;15011;53.380;10.034;2024-03-02T18:48:33;9.90;;;5.83;;
27576;SDS011;15011;53.380;10.034;2024-03-02T18:53:33;11.90;;;7.10;;
27576;SDS011;15011;53.380;10.034;2024-03-02T18:58:34;11.63;;;8.37;;
27576;SDS011;15011;53.380;10.034;2024-03-02T19:03:35;12.65;;;7.90;;
27576;SDS011;15011;53.380;10.034;2024-03-02T19:08:35;9.18;;;7.38;;
27576;SDS011;15011;53.380;10.034;2024-03-02T19:13:36;14.27;;;8.07;;
27576;SDS011;15011;53.380;10.034;2024-03-02T19:18:36;12.17;;;8.37;;
27576;SDS011;15011;53.380;10.034;2024-03-02T19:23:36;12.57;;;8.30;;
27576;SDS011;15011;53.380;10.034;2024-03-02T19:28:37;17.20;;;9.23;;
27576;SDS011;15011;53.380;10.034;2024-03-02T19:33:37;15.27;;;9.10;;
27576;SDS011;15011;53.380;10.034;2024-03-02T19:38:38;15.63;;;9.90;;
27576;SDS011;15011;53.380;10.034;2024-03-02T19:43:39;19.23;;;11.40;;
27576;SDS011;15011;53.380;10.034;2024-03-02T19:48:40;21.20;;;12.67;;
27576;SDS011;15011;53.380;10.034;2024-03-02T19:53:41;19.50;;;11.38;;
27576;SDS011;15011;53.380;10.034;2024-03-02T19:58:41;14.33;;;9.30;;
27576;SDS011;15011;53.380;10.034;2024-03-02T20:03:43;15.13;;;10.27;;
27576;SDS011;15011;53.380;10.034;2024-03-02T20:08:43;19.60;;;12.25;;
27576;SDS011;15011;53.380;10.034;2024-03-02T20:13:44;20.10;;;11.60;;
27576;SDS011;15011;53.380;10.034;2024-03-02T20:18:45;20.75;;;11.77;;
27576;SDS011;15011;53.380;10.034;2024-03-02T20:23:45;18.53;;;10.97;;
27576;SDS011;15011;53.380;10.034;2024-03-02T20:28:46;16.30;;;9.93;;
27576;SDS011;15011;53.380;10.034;2024-03-02T20:33:46;17.37;;;10.67;;
27576;SDS011;15011;53.380;10.034;2024-03-02T20:38:47;21.73;;;12.05;;
27576;SDS011;15011;53.380;10.034;2024-03-02T20:43:47;19.15;;;11.10;;
27576;SDS011;15011;53.380;10.034;2024-03-02T20:48:48;18.93;;;10.37;;
27576;SDS011;15011;53.380;10.034;2024-03-02T20:53:48;17.17;;;10.68;;
27576;SDS011;15011;53.380;10.034;2024-03-02T20:58:49;19.63;;;10.53;;
27576;SDS011;15011;53.380;10.034;2024-03-02T21:03:49;20.40;;;11.30;;
27576;SDS011;15011;53.380;10.034;2024-03-02T21:08:50;21.30;;;11.87;;
27576;SDS011;15011;53.380;10.034;2024-03-02T21:13:50;17.55;;;10.15;;
27576;SDS011;15011;53.380;10.034;2024-03-02T21:18:51;17.03;;;11.13;;
27576;SDS011;15011;53.380;10.034;2024-03-02T21:23:53;18.00;;;9.93;;
27576;SDS011;15011;53.380;10.034;2024-03-02T21:28:54;30.17;;;17.13;;
27576;SDS011;15011;53.380;10.034;2024-03-02T21:33:54;25.90;;;14.20;;
27576;SDS011;15011;53.380;10.034;2024-03-02T21:38:55;18.70;;;11.23;;
27576;SDS011;15011;53.380;10.034;2024-03-02T21:43:55;22.20;;;11.67;;
27576;SDS011;15011;53.380;10.034;2024-03-02T21:48:56;21.70;;;11.90;;
27576;SDS011;15011;53.380;10.034;2024-03-02T21:53:56;19.13;;;12.10;;
27576;SDS011;15011;53.380;10.034;2024-03-02T21:58:58;22.52;;;12.88;;
27576;SDS011;15011;53.380;10.034;2024-03-02T22:03:58;23.90;;;14.13;;
27576;SDS011;15011;53.380;10.034;2024-03-02T22:08:59;20.60;;;11.57;;
27576;SDS011;15011;53.380;10.034;2024-03-02T22:13:59;20.80;;;11.50;;
27576;SDS011;15011;53.380;10.034;2024-03-02T22:19:00;24.60;;;12.50;;
27576;SDS011;15011;53.380;10.034;2024-03-02T22:24:00;19.80;;;11.47;;
27576;SDS011;15011;53.380;10.034;2024-03-02T22:29:00;23.37;;;12.33;;
27576;SDS011;15011;53.380;10.034;2024-03-02T22:34:01;20.13;;;10.90;;
27576;SDS011;15011;53.380;10.034;2024-03-02T22:39:02;20.35;;;11.40;;
27576;SDS011;15011;53.380;10.034;2024-03-02T22:44:03;20.60;;;12.88;;
27576;SDS011;15011;53.380;10.034;2024-03-02T22:49:03;18.80;;;10.98;;
27576;SDS011;15011;53.380;10.034;2024-03-02T22:54:03;20.23;;;11.47;;
27576;SDS011;15011;53.380;10.034;2024-03-02T22:59:04;18.47;;;9.80;;
27576;SDS011;15011;53.380;10.034;2024-03-02T23:04:05;21.35;;;10.27;;
27576;SDS011;15011;53.380;10.034;2024-03-02T23:09:05;19.90;;;11.27;;
27576;SDS011;15011;53.380;10.034;2024-03-02T23:14:05;17.42;;;10.13;;
27576;SDS011;15011;53.380;10.034;2024-03-02T23:19:08;20.90;;;11.50;;
27576;SDS011;15011;53.380;10.034;2024-03-02T23:24:08;19.67;;;11.73;;
27576;SDS011;15011;53.380;10.034;2024-03-02T23:29:09;21.33;;;11.10;;
27576;SDS011;15011;53.380;10.034;2024-03-02T23:34:09;16.77;;;10.90;;
27576;SDS011;15011;53.380;10.034;2024-03-02T23:39:10;16.33;;;10.07;;
27576;SDS011;15011;53.380;10.034;2024-03-02T23:44:11;20.20;;;11.48;;
27576;SDS011;15011;53.380;10.034;2024-03-02T23:49:13;20.40;;;11.07;;
27576;SDS011;15011;53.380;10.034;2024-03-02T23:54:14;19.63;;;10.73;;
27576;SDS011;15011;53.380;10.034;2024-03-02T23:59:14;20.15;;;11.38;;
